Airfield :
LOGIN :

Register | Disclaimer

   EN    FR    IT 

 










Legend :    VFR   Marginal VFR   IFR   Intensive IFR   Very Intensive IFR
Visi :
Ceiling :
>= 8 km
>= 3000ft
5 to 8 km
1000 to 3000 ft
1500m to 5 km
500 to 1000 ft
800 to 1500m
200 to 500 ft
< 800m
< 200 ft
Symbols :   Thunderstorms  Fog  Heavy snow  Heavy precipitations  Wind > 20 kt
SIGMETs :     Misc.  Thunderstorms  Icing  Turbulence  Mountain Waves  Volcanic Ashes







- Airport Elevation : 0 ft


ETWM - Meppe

CURRENT METAR :
  • 260720Z 24008KT 9999 VCSH FEW009 SCT011TCU BKN029 09/07 Q1012 BLU

EXPIRED METARs :
  • 260620Z 33003KT 9999 VCSH SCT012TCU BKN016 BKN047 08/07 Q1011 WHT
  • 260520Z 28008KT 9999 -RA SCT011 BKN018 07/06 Q1011 RERA WHT
  • 260507Z 25008KT 6000 RA FEW005 BKN007 BKN012 07/06 Q1011 GRN
  • 260438Z 30006KT 9999 BKN007 BKN013 07/06 Q1010 RERA GRN
  • 260428Z 25007KT 6000 RA SCT007 BKN013 BKN022 07/06 Q1010 GRN
  • 260420Z 23009KT 8000 -RA FEW007 SCT013 BKN022 07/06 Q1010 WHT

TAF N/A
No reported NOTAMs for that airfield.



MET'MAP, your aeronautical weather chart ! - Copyright ORBIFLY December 2007 - Disclaimer

ORBIFLY MET'MAP TEAM :

Programming & Development : Alexandra Zaïnal
Concept & Development : Baudouin d'Aumeries
Co-Development & Prog : Marc-Olivier Méhu
Technical & hardware support : Manuel Goepfert

Contact : metmap@orbifly.com




SOURCES & CREDITS :

   NOAA